Time;durP1;ratioP1;P1;durP2;ratioP2;P2;SDS_P1;SDS_P2;PMS_P1;PMS_P2;Temp;Humidity;BMP_temperature;BMP_pressure;BME280_temperature;BME280_humidity;BME280_pressure;Samples;Min_cycle;Max_cycle;Signal;HPM_P1;HPM_P2
2021/10/09 00:02:19;;;;;;;49.23;26.62;;;;;;;3.88;75.55;103476.07;1717769;83;21093;-84
2021/10/09 00:04:48;;;;;;;46.98;27.00;;;;;;;3.86;75.54;103480.22;1717068;83;21055;-83
2021/10/09 00:07:15;;;;;;;49.05;27.20;;;;;;;3.83;75.54;103471.73;1717914;83;21756;-83
2021/10/09 00:09:43;;;;;;;44.73;25.65;;;;;;;3.83;75.57;103481.22;1717744;83;21113;-84
2021/10/09 00:12:10;;;;;;;42.35;25.00;;;;;;;3.80;75.58;103474.43;1718011;83;21161;-84
2021/10/09 00:14:37;;;;;;;49.35;26.37;;;;;;;3.78;75.59;103474.67;1718051;83;21078;-84
2021/10/09 00:17:08;;;;;;;47.55;26.33;;;;;;;3.76;75.59;103477.52;1688518;83;21595;-84
2021/10/09 00:19:35;;;;;;;45.23;27.13;;;;;;;3.71;75.57;103473.14;1718050;83;21801;-84
2021/10/09 00:22:02;;;;;;;45.67;24.65;;;;;;;3.68;75.65;103474.17;1717803;83;21580;-83
2021/10/09 00:24:29;;;;;;;41.83;25.80;;;;;;;3.64;75.67;103468.11;1717774;83;21592;-83
2021/10/09 00:26:56;;;;;;;39.65;24.72;;;;;;;3.62;75.64;103469.29;1717762;83;21062;-83
2021/10/09 00:29:22;;;;;;;41.18;24.63;;;;;;;3.58;75.66;103472.34;1717878;83;21117;-83
2021/10/09 00:31:52;;;;;;;43.63;25.35;;;;;;;3.53;75.70;103473.97;1717794;83;21992;-83
2021/10/09 00:34:18;;;;;;;42.10;24.87;;;;;;;3.49;75.75;103469.78;1717767;83;21064;-83
2021/10/09 00:36:45;;;;;;;43.50;24.77;;;;;;;3.45;75.79;103470.61;1717946;83;21074;-83
2021/10/09 00:39:12;;;;;;;42.23;24.12;;;;;;;3.43;75.86;103466.55;1717962;83;21038;-83
2021/10/09 00:41:39;;;;;;;37.42;22.80;;;;;;;3.42;75.92;103466.04;1717891;83;21114;-83
2021/10/09 00:44:16;;;;;;;39.63;23.12;;;;;;;3.40;75.96;103465.38;1717984;83;21808;-83
2021/10/09 00:46:44;;;;;;;40.83;23.60;;;;;;;3.38;75.92;103469.48;1717703;83;21062;-83
2021/10/09 00:49:15;;;;;;;43.02;23.55;;;;;;;3.33;75.96;103465.14;1717825;83;21102;-84
2021/10/09 00:51:47;;;;;;;42.80;23.95;;;;;;;3.29;75.99;103463.01;1717796;83;21066;-84
2021/10/09 00:54:15;;;;;;;35.35;22.67;;;;;;;3.26;76.04;103467.51;1717748;83;21062;-83
2021/10/09 00:56:44;;;;;;;38.02;22.35;;;;;;;3.24;76.06;103469.05;1717777;83;22453;-83
2021/10/09 00:59:11;;;;;;;40.12;23.77;;;;;;;3.24;76.14;103464.23;1717862;83;21162;-83
2021/10/09 01:01:38;;;;;;;39.78;23.87;;;;;;;3.23;76.25;103463.33;1723199;83;21110;-83
2021/10/09 01:04:06;;;;;;;44.75;25.60;;;;;;;3.24;76.16;103462.54;1722445;83;21156;-83
2021/10/09 01:06:33;;;;;;;43.20;24.12;;;;;;;3.22;76.13;103464.08;1722801;83;21142;-84
2021/10/09 01:09:01;;;;;;;43.52;23.73;;;;;;;3.22;76.22;103468.38;1723196;83;21377;-84
2021/10/09 01:11:29;;;;;;;40.98;24.30;;;;;;;3.21;76.28;103467.83;1723112;83;21008;-83
2021/10/09 01:13:56;;;;;;;47.45;25.68;;;;;;;3.19;76.34;103469.00;1723196;83;21556;-82
2021/10/09 01:16:26;;;;;;;47.58;25.50;;;;;;;3.19;76.44;103463.80;1723135;83;21058;-83
2021/10/09 01:18:56;;;;;;;43.28;25.80;;;;;;;3.19;76.49;103455.05;1723073;83;21080;-85
2021/10/09 01:21:25;;;;;;;44.42;25.50;;;;;;;3.19;76.49;103458.95;1723530;83;22496;-85
2021/10/09 01:23:52;;;;;;;45.10;25.08;;;;;;;3.18;76.48;103454.53;1723364;83;21046;-85
2021/10/09 01:26:19;;;;;;;45.75;25.25;;;;;;;3.16;76.54;103457.37;1723612;83;21508;-85
2021/10/09 01:28:49;;;;;;;44.08;25.55;;;;;;;3.13;76.56;103461.87;1723715;83;21078;-85
2021/10/09 01:31:16;;;;;;;42.40;25.75;;;;;;;3.11;76.57;103459.50;1723650;83;21592;-83
2021/10/09 01:33:43;;;;;;;53.90;25.35;;;;;;;3.10;76.62;103460.28;1723393;83;22727;-84
2021/10/09 01:36:10;;;;;;;49.30;24.90;;;;;;;3.10;76.65;103461.19;1723361;83;21085;-83
2021/10/09 01:38:40;;;;;;;45.63;25.65;;;;;;;3.10;76.66;103461.19;1723343;83;21557;-83
2021/10/09 01:41:06;;;;;;;41.60;25.12;;;;;;;3.10;76.64;103464.19;1723035;83;21066;-83
2021/10/09 01:43:33;;;;;;;43.95;24.27;;;;;;;3.07;76.72;103465.17;1723284;83;21090;-83
2021/10/09 01:46:00;;;;;;;44.93;25.23;;;;;;;3.08;76.74;103461.82;1723285;83;21744;-84
2021/10/09 01:48:34;;;;;;;45.03;24.50;;;;;;;3.06;76.67;103459.42;1723236;83;21054;-83
2021/10/09 01:51:02;;;;;;;44.85;24.92;;;;;;;3.04;76.65;103459.30;1722616;83;21097;-83
2021/10/09 01:53:32;;;;;;;44.80;25.60;;;;;;;3.01;76.60;103458.07;1723430;83;21074;-83
2021/10/09 01:55:58;;;;;;;43.42;24.98;;;;;;;2.96;76.50;103463.19;1723399;83;21106;-83
2021/10/09 01:58:25;;;;;;;47.23;25.32;;;;;;;2.95;76.69;103463.94;1723081;83;21809;-86
2021/10/09 02:00:53;;;;;;;41.15;25.97;;;;;;;2.95;76.74;103466.19;1719566;83;21320;-83
2021/10/09 02:03:21;;;;;;;46.88;25.95;;;;;;;2.95;76.76;103465.24;1717865;83;21023;-84
2021/10/09 02:05:50;;;;;;;46.98;25.90;;;;;;;2.94;76.74;103468.62;1717814;83;21105;-83
2021/10/09 02:08:16;;;;;;;41.95;24.72;;;;;;;2.92;76.74;103468.47;1718073;83;21062;-83
2021/10/09 02:10:59;;;;;;;43.23;24.35;;;;;;;2.89;76.73;103463.89;1717953;83;21860;-83
2021/10/09 02:13:29;;;;;;;40.10;23.40;;;;;;;2.87;76.79;103469.69;1717520;83;21557;-83
2021/10/09 02:16:03;;;;;;;42.75;23.38;;;;;;;2.83;76.78;103461.95;1716820;83;21089;-83
2021/10/09 02:18:39;;;;;;;47.23;24.02;;;;;;;2.81;76.83;103462.58;1716497;83;21078;-83
2021/10/09 02:26:32;;;;;;;38.88;22.70;;;;;;;2.75;76.87;103456.38;1717752;83;21631;-85
2021/10/09 02:28:59;;;;;;;38.33;23.00;;;;;;;2.72;76.88;103463.51;1717872;83;21062;-86
2021/10/09 02:31:27;;;;;;;39.18;22.87;;;;;;;2.70;76.91;103474.14;1717897;83;21023;-85
2021/10/09 02:33:54;;;;;;;36.23;22.48;;;;;;;2.70;76.95;103474.50;1717950;83;21156;-85
2021/10/09 02:36:21;;;;;;;38.15;21.93;;;;;;;2.68;76.92;103472.12;1717929;83;22611;-84
2021/10/09 02:38:51;;;;;;;42.00;22.62;;;;;;;2.57;76.92;103454.53;1717748;83;21043;-84
2021/10/09 02:41:24;;;;;;;35.75;22.02;;;;;;;2.64;76.95;103475.19;1717892;83;21051;-84
2021/10/09 02:43:50;;;;;;;39.78;22.52;;;;;;;2.60;76.95;103473.05;1717860;83;21055;-84
2021/10/09 02:46:17;;;;;;;45.43;21.70;;;;;;;2.59;77.00;103471.20;1717862;83;21050;-83
2021/10/09 02:48:47;;;;;;;41.63;23.98;;;;;;;2.58;77.02;103475.88;1717768;83;21762;-84
2021/10/09 02:51:14;;;;;;;42.13;22.17;;;;;;;2.56;77.05;103477.41;1717938;83;21344;-85
2021/10/09 02:53:40;;;;;;;35.63;22.93;;;;;;;2.56;77.11;103478.33;1717330;83;21063;-84
2021/10/09 02:56:12;;;;;;;42.13;22.95;;;;;;;2.55;77.10;103475.56;1717529;83;21046;-83
2021/10/09 02:58:36;;;;;;;41.02;22.98;;;;;;;2.53;77.10;103472.80;1717591;82;21082;-86
2021/10/09 03:01:03;;;;;;;40.52;22.13;;;;;;;2.52;77.12;103474.48;1720591;83;21922;-84
2021/10/09 03:03:33;;;;;;;36.40;22.77;;;;;;;2.51;77.14;103475.62;1723001;83;21149;-84
2021/10/09 03:06:00;;;;;;;38.08;22.50;;;;;;;2.48;77.17;103474.95;1723016;83;21093;-85
2021/10/09 03:08:27;;;;;;;40.50;22.77;;;;;;;2.48;77.15;103471.44;1723193;83;21600;-84
2021/10/09 03:10:54;;;;;;;38.10;21.00;;;;;;;2.46;77.14;103477.78;1723270;83;21140;-83
2021/10/09 03:13:21;;;;;;;40.25;22.20;;;;;;;2.44;77.17;103472.81;1723243;83;22457;-83
2021/10/09 03:15:49;;;;;;;36.88;22.35;;;;;;;2.44;77.18;103477.06;1695386;83;21564;-84
2021/10/09 03:18:16;;;;;;;43.38;23.55;;;;;;;2.43;77.22;103479.14;1723390;83;21170;-87
2021/10/09 03:20:43;;;;;;;46.65;23.75;;;;;;;2.43;77.24;103483.05;1723310;83;21051;-85
2021/10/09 03:23:10;;;;;;;51.23;25.65;;;;;;;2.40;77.21;103482.33;1723537;83;21046;-85
2021/10/09 03:25:37;;;;;;;51.95;25.80;;;;;;;2.37;77.22;103484.64;1723625;83;21812;-85
2021/10/09 03:28:04;;;;;;;47.15;24.43;;;;;;;2.35;77.24;103490.06;1723346;83;21105;-84
2021/10/09 03:30:33;;;;;;;43.45;23.35;;;;;;;2.34;77.29;103485.22;1696685;83;21572;-86
2021/10/09 03:33:00;;;;;;;41.63;23.25;;;;;;;2.33;77.35;103489.91;1723322;83;21376;-85
2021/10/09 03:35:29;;;;;;;41.37;22.52;;;;;;;2.33;77.42;103487.69;1723443;83;21062;-85
2021/10/09 03:37:57;;;;;;;43.87;22.67;;;;;;;2.34;77.48;103490.42;1722838;83;21789;-86
2021/10/09 03:40:25;;;;;;;38.28;22.37;;;;;;;2.34;77.48;103489.12;1723280;83;21669;-86
2021/10/09 03:42:57;;;;;;;42.13;21.50;;;;;;;2.36;77.53;103491.88;1723085;83;21031;-83
2021/10/09 03:48:01;;;;;;;45.25;23.55;;;;;;;2.33;77.43;103495.48;1722608;83;21773;-85
2021/10/09 03:50:22;;;;;;;47.25;23.70;;;;;;;2.30;77.41;103496.46;1721092;83;21739;-84
2021/10/09 03:52:47;;;;;;;50.80;25.72;;;;;;;2.28;77.46;103500.20;1722989;83;21667;-84
2021/10/09 03:55:18;;;;;;;45.15;25.17;;;;;;;2.26;77.44;103500.81;1723370;83;21104;-84
2021/10/09 03:57:45;;;;;;;52.48;26.23;;;;;;;2.27;77.57;103502.63;1723412;83;21545;-84
2021/10/09 04:00:15;;;;;;;58.30;27.58;;;;;;;2.28;77.50;103503.19;1722832;83;21145;-84
2021/10/09 04:02:42;;;;;;;61.70;30.60;;;;;;;2.25;77.43;103502.50;1723032;83;21819;-85
2021/10/09 04:05:09;;;;;;;75.47;32.20;;;;;;;2.25;77.47;103505.45;1722967;83;21595;-85
2021/10/09 04:07:36;;;;;;;69.22;31.82;;;;;;;2.25;77.54;103505.11;1723116;83;21066;-84
2021/10/09 04:10:07;;;;;;;63.50;31.23;;;;;;;2.26;77.54;103507.31;1723185;83;21077;-84
2021/10/09 04:12:34;;;;;;;59.23;29.10;;;;;;;2.25;77.49;103503.80;1723092;83;21576;-85
2021/10/09 04:15:01;;;;;;;65.03;29.23;;;;;;;2.24;77.48;103511.44;1723050;83;21761;-85
2021/10/09 04:17:28;;;;;;;65.35;28.75;;;;;;;2.23;77.51;103509.58;1722934;83;21114;-85
2021/10/09 04:19:55;;;;;;;62.60;30.30;;;;;;;2.21;77.47;103511.11;1722895;83;21069;-85
2021/10/09 04:22:25;;;;;;;64.60;30.05;;;;;;;2.20;77.53;103514.09;1723222;83;21098;-85
2021/10/09 04:24:55;;;;;;;61.90;29.85;;;;;;;2.20;77.53;103514.48;1723355;83;21081;-85
2021/10/09 04:27:22;;;;;;;59.63;29.48;;;;;;;2.20;77.52;103517.09;1723410;83;22772;-85
2021/10/09 04:29:53;;;;;;;56.85;28.87;;;;;;;2.17;77.50;103506.36;1722950;83;21560;-85
2021/10/09 04:32:19;;;;;;;55.63;28.02;;;;;;;2.17;77.57;103505.97;1723546;83;21655;-86
2021/10/09 04:34:46;;;;;;;57.75;27.93;;;;;;;2.18;77.58;103506.88;1723252;83;21046;-84
2021/10/09 04:37:13;;;;;;;53.38;27.20;;;;;;;2.17;77.49;103507.66;1723550;83;21085;-84
2021/10/09 04:39:43;;;;;;;56.40;27.58;;;;;;;2.14;77.52;103505.28;1696181;83;21870;-82
2021/10/09 04:42:12;;;;;;;52.65;28.00;;;;;;;2.15;77.53;103508.80;1722730;83;21069;-83
2021/10/09 04:44:37;;;;;;;61.33;28.92;;;;;;;2.13;77.50;103508.63;1722991;83;21031;-83
2021/10/09 04:47:06;;;;;;;55.03;29.27;;;;;;;2.12;77.55;103504.21;1723254;83;21171;-82
2021/10/09 04:49:33;;;;;;;57.90;29.32;;;;;;;2.11;77.57;103503.66;1723575;83;21074;-84
2021/10/09 04:52:00;;;;;;;48.60;28.32;;;;;;;2.11;77.51;103509.24;1723789;83;21718;-85
2021/10/09 04:54:27;;;;;;;54.53;27.05;;;;;;;2.06;77.50;103503.94;1723592;83;21094;-85
2021/10/09 04:56:54;;;;;;;50.63;26.50;;;;;;;2.01;77.50;103508.67;1723792;83;21098;-84
2021/10/09 04:59:21;;;;;;;50.52;26.85;;;;;;;2.00;77.60;103511.11;1723659;83;21084;-85
2021/10/09 05:01:48;;;;;;;55.38;27.90;;;;;;;2.00;77.62;103514.62;1723259;83;21077;-86
2021/10/09 05:04:15;;;;;;;43.38;26.25;;;;;;;1.99;77.67;103510.20;1723570;83;21836;-84
2021/10/09 05:06:42;;;;;;;51.00;26.27;;;;;;;2.00;77.72;103512.02;1723057;83;21030;-82
2021/10/09 05:09:09;;;;;;;51.08;26.33;;;;;;;2.00;77.69;103509.42;1723490;83;21118;-84
2021/10/09 05:11:36;;;;;;;44.48;26.10;;;;;;;2.02;77.70;103512.19;1723526;83;21521;-85
2021/10/09 05:14:04;;;;;;;46.23;25.05;;;;;;;2.02;77.73;103512.19;1651060;83;21176;-83
2021/10/09 05:16:31;;;;;;;41.20;24.60;;;;;;;2.06;77.82;103516.55;1723279;83;21775;-84
2021/10/09 05:18:58;;;;;;;43.42;24.57;;;;;;;2.10;77.87;103515.19;1723201;83;21034;-83
2021/10/09 05:21:25;;;;;;;46.53;25.02;;;;;;;2.12;77.89;103512.36;1723423;83;21062;-83
2021/10/09 05:23:54;;;;;;;40.38;23.65;;;;;;;2.16;77.94;103513.25;1722193;83;21070;-83
2021/10/09 05:26:24;;;;;;;52.48;31.95;;;;;;;2.20;77.94;103512.80;1663435;86;21164;-82
2021/10/09 05:28:55;;;;;;;71.87;42.88;;;;;;;2.25;77.95;103510.30;1623592;88;21254;-83
2021/10/09 05:31:25;;;;;;;60.78;38.60;;;;;;;2.31;77.96;103515.21;1633639;87;21765;-82
2021/10/09 05:33:52;;;;;;;51.83;28.83;;;;;;;2.37;77.96;103511.93;1625614;87;21150;-83
2021/10/09 05:36:21;;;;;;;48.25;28.98;;;;;;;2.43;77.94;103521.65;1628838;87;21638;-82
2021/10/09 05:38:50;;;;;;;49.42;31.73;;;;;;;2.47;77.89;103514.70;1626032;87;21423;-82
2021/10/09 05:41:21;;;;;;;53.87;32.95;;;;;;;2.54;77.90;103517.55;1632124;86;21556;-81
2021/10/09 05:43:48;;;;;;;52.93;35.20;;;;;;;2.60;77.89;103513.36;1636788;86;21093;-78
2021/10/09 05:46:15;;;;;;;57.95;36.10;;;;;;;2.65;77.87;103515.66;1642136;87;21499;-83
2021/10/09 05:48:46;;;;;;;47.38;28.15;;;;;;;2.71;77.88;103512.38;1642465;87;21808;-87
2021/10/09 05:51:24;;;;;;;49.00;26.02;;;;;;;2.79;77.90;103512.23;1641179;87;21717;-82
2021/10/09 05:53:59;;;;;;;45.83;26.33;;;;;;;2.85;77.91;103508.58;1641451;87;21409;-82
2021/10/09 05:59:08;;;;;;;41.77;24.52;;;;;;;3.01;77.83;103516.23;1641934;87;21631;-83
2021/10/09 06:01:50;;;;;;;42.10;24.40;;;;;;;3.02;77.78;103508.03;1654679;84;21071;-83
2021/10/09 07:00:47;;;;;;;46.37;23.65;;;;;;;4.95;77.32;103526.07;1700463;84;21346;-83
2021/10/09 07:03:18;;;;;;;41.80;23.55;;;;;;;5.06;77.31;103533.20;1684163;84;21114;-83
2021/10/09 07:05:47;;;;;;;36.63;23.02;;;;;;;5.17;77.26;103530.28;1669223;85;21598;-83
2021/10/09 07:08:14;;;;;;;45.15;22.80;;;;;;;5.28;77.18;103532.17;1701689;84;21080;-83
2021/10/09 07:10:45;;;;;;;40.52;22.82;;;;;;;5.36;77.07;103528.95;1701878;83;21082;-83
2021/10/09 07:13:13;;;;;;;35.70;22.30;;;;;;;5.43;77.07;103532.25;1701014;83;21081;-83
2021/10/09 07:15:40;;;;;;;33.50;22.73;;;;;;;5.56;76.99;103534.68;1701319;84;21125;-83
2021/10/09 07:18:10;;;;;;;42.30;23.40;;;;;;;5.67;76.91;103533.00;1701219;84;21172;-83
2021/10/09 07:20:40;;;;;;;35.75;22.62;;;;;;;5.78;76.92;103530.96;1701659;84;21050;-84
2021/10/09 07:23:08;;;;;;;34.95;22.93;;;;;;;5.90;76.86;103531.16;1701633;84;21077;-83
2021/10/09 07:25:36;;;;;;;34.92;23.85;;;;;;;6.00;76.75;103534.73;1682421;84;21351;-83
2021/10/09 07:28:05;;;;;;;39.63;23.40;;;;;;;6.12;76.72;103533.98;1694280;84;21170;-79
2021/10/09 07:30:31;;;;;;;44.55;25.55;;;;;;;6.22;76.64;103539.25;1701563;83;21100;-79
2021/10/09 07:32:58;;;;;;;35.90;22.77;;;;;;;6.33;76.49;103538.89;1701657;83;21176;-83
2021/10/09 07:35:25;;;;;;;34.55;22.00;;;;;;;6.46;76.50;103538.22;1702463;83;21077;-83
2021/10/09 07:37:52;;;;;;;35.50;22.95;;;;;;;6.57;76.23;103532.25;1701983;84;22499;-83
2021/10/09 07:40:19;;;;;;;40.85;22.20;;;;;;;6.70;76.14;103531.20;1681993;84;21036;-83
2021/10/09 07:42:46;;;;;;;35.05;23.30;;;;;;;6.80;75.88;103530.28;1694701;84;21092;-82
2021/10/09 07:45:14;;;;;;;38.13;21.55;;;;;;;6.91;75.85;103532.50;1694722;84;21676;-82
2021/10/09 07:47:41;;;;;;;33.02;21.00;;;;;;;7.03;75.94;103533.52;1694616;84;21092;-82
2021/10/09 07:50:08;;;;;;;35.25;21.62;;;;;;;7.17;76.01;103526.80;1694508;84;21761;-83
2021/10/09 07:52:35;;;;;;;32.42;20.72;;;;;;;7.29;75.81;103525.63;1694491;84;21071;-81
2021/10/09 07:55:05;;;;;;;27.13;19.67;;;;;;;7.40;75.61;103532.66;1694252;84;21057;-83
2021/10/09 07:57:32;;;;;;;33.53;20.37;;;;;;;7.51;75.41;103531.84;1694523;84;21087;-82
2021/10/09 07:59:59;;;;;;;36.53;20.27;;;;;;;7.61;75.30;103524.33;1694694;84;21564;-84
2021/10/09 08:02:34;;;;;;;33.73;20.05;;;;;;;7.72;75.18;103531.77;1694254;84;21028;-82
2021/10/09 08:04:57;;;;;;;48.10;24.70;;;;;;;7.82;74.99;103532.11;1692949;84;21107;-84
2021/10/09 08:07:24;;;;;;;43.80;23.15;;;;;;;7.91;74.78;103527.61;1694752;84;21095;-83
2021/10/09 08:09:50;;;;;;;35.08;20.45;;;;;;;8.02;74.68;103529.39;1694653;84;21044;-83
2021/10/09 08:12:17;;;;;;;37.30;20.45;;;;;;;8.14;74.47;103532.06;1694742;84;21087;-82
2021/10/09 08:14:44;;;;;;;31.02;19.77;;;;;;;8.22;74.14;103526.10;1694541;84;21779;-80
2021/10/09 08:17:11;;;;;;;30.05;19.67;;;;;;;8.33;73.79;103531.80;1694427;84;21827;-82
2021/10/09 08:19:38;;;;;;;33.83;17.77;;;;;;;8.41;73.61;103528.09;1694565;84;21079;-82
2021/10/09 08:22:09;;;;;;;33.80;18.30;;;;;;;8.50;73.34;103526.22;1694345;84;21103;-82
2021/10/09 08:24:40;;;;;;;27.25;16.82;;;;;;;8.61;73.06;103531.37;1693976;84;21091;-83
2021/10/09 08:40:31;;;;;;;29.02;17.50;;;;;;;9.17;71.73;103524.70;1694492;84;21819;-82
2021/10/09 08:43:01;;;;;;;30.75;18.02;;;;;;;9.23;71.53;103518.58;1694126;84;21044;-82
2021/10/09 08:45:27;;;;;;;29.90;18.67;;;;;;;9.30;71.38;103522.19;1694382;84;21250;-81
2021/10/09 08:47:58;;;;;;;30.75;17.73;;;;;;;9.38;71.18;103525.38;1694194;84;21147;-81
2021/10/09 08:50:23;;;;;;;26.52;16.87;;;;;;;9.42;70.80;103521.80;1693700;84;21106;-81
2021/10/09 08:53:09;;;;;;;23.15;15.53;;;;;;;9.49;70.58;103522.73;1694423;84;21751;-81
2021/10/09 08:55:39;;;;;;;28.47;16.35;;;;;;;9.53;70.13;103521.25;1694246;84;21146;-82
2021/10/09 08:58:11;;;;;;;26.57;16.95;;;;;;;9.56;69.79;103527.16;1694078;84;21095;-81
2021/10/09 09:01:05;;;;;;;34.60;18.73;;;;;;;9.59;69.64;103527.36;1693622;84;21142;-81
2021/10/09 09:03:36;;;;;;;27.48;17.00;;;;;;;9.66;69.57;103529.65;1692148;84;21633;-81
2021/10/09 09:06:07;;;;;;;25.77;16.93;;;;;;;9.73;69.20;103530.61;1692474;84;21905;-81
2021/10/09 09:08:47;;;;;;;27.50;17.40;;;;;;;9.77;69.10;103523.45;1671368;84;21045;-81
2021/10/09 09:30:41;;;;;;;27.07;16.35;;;;;;;10.37;67.79;103518.97;1686238;84;21107;-81
2021/10/09 09:35:33;;;;;;;24.12;16.05;;;;;;;10.49;67.41;103523.75;1694440;84;21114;-81
2021/10/09 09:40:40;;;;;;;29.87;16.17;;;;;;;10.57;67.21;103519.95;1694526;84;21077;-81
2021/10/09 09:43:07;;;;;;;27.75;14.05;;;;;;;10.64;67.07;103519.58;1694105;84;21108;-81
2021/10/09 09:45:36;;;;;;;22.48;15.30;;;;;;;10.72;66.93;103521.80;1694758;84;21768;-81
2021/10/09 09:48:07;;;;;;;23.30;13.03;;;;;;;10.78;66.72;103516.97;1694428;84;21099;-81
2021/10/09 09:50:33;;;;;;;19.90;11.97;;;;;;;10.83;66.61;103514.22;1693911;84;21036;-81
2021/10/09 09:53:02;;;;;;;20.15;12.95;;;;;;;10.91;66.40;103514.77;1694405;84;21737;-81
2021/10/09 09:55:29;;;;;;;20.62;12.70;;;;;;;10.96;66.30;103515.59;1694376;84;21052;-81
2021/10/09 09:57:55;;;;;;;20.12;10.65;;;;;;;11.00;65.96;103513.67;1694457;84;21749;-82
2021/10/09 10:00:22;;;;;;;15.10;10.48;;;;;;;11.04;65.81;103505.16;1694331;84;21057;-81
2021/10/09 10:02:53;;;;;;;16.85;11.28;;;;;;;11.08;65.75;103501.91;1693725;84;21095;-81
2021/10/09 10:05:22;;;;;;;19.20;10.63;;;;;;;11.16;65.81;103506.38;1692670;84;21155;-81
2021/10/09 10:07:52;;;;;;;16.15;9.40;;;;;;;11.23;65.75;103499.80;1692715;84;21111;-81
2021/10/09 10:10:19;;;;;;;14.75;10.20;;;;;;;11.31;65.67;103498.98;1692905;84;22741;-82
2021/10/09 10:12:47;;;;;;;19.02;11.00;;;;;;;11.36;65.44;103495.84;1692819;84;21071;-81
2021/10/09 10:15:15;;;;;;;13.95;10.32;;;;;;;11.40;65.33;103499.17;1692697;84;21584;-81
2021/10/09 10:17:48;;;;;;;14.73;10.40;;;;;;;11.44;65.21;103493.28;1692881;84;21075;-81
2021/10/09 10:20:17;;;;;;;21.03;10.30;;;;;;;11.47;64.96;103491.27;1693254;84;21573;-81
2021/10/09 10:22:50;;;;;;;15.48;9.85;;;;;;;11.51;64.90;103489.34;1692864;84;22600;-81
2021/10/09 10:25:26;;;;;;;16.42;8.45;;;;;;;11.59;64.60;103492.47;1692300;84;21645;-82
2021/10/09 10:28:17;;;;;;;11.65;8.55;;;;;;;11.66;64.26;103486.78;1693018;84;21076;-83
2021/10/09 10:30:46;;;;;;;12.63;9.63;;;;;;;11.73;64.01;103484.11;1692936;84;21025;-83
2021/10/09 10:33:19;;;;;;;10.48;8.23;;;;;;;11.80;63.76;103485.91;1692715;84;21079;-81
2021/10/09 10:35:49;;;;;;;21.50;11.40;;;;;;;11.86;63.52;103489.35;1695247;84;21777;-83
2021/10/09 10:38:25;;;;;;;11.93;7.45;;;;;;;11.92;63.38;103490.19;1662848;84;21884;-83
2021/10/09 10:40:58;;;;;;;26.10;19.05;;;;;;;11.97;63.53;103489.66;1694114;84;21785;-83
2021/10/09 10:46:30;;;;;;;22.65;14.55;;;;;;;12.09;62.92;103484.27;1694220;84;21576;-81
2021/10/09 10:49:12;;;;;;;19.23;13.20;;;;;;;12.13;62.72;103490.65;1694283;84;21771;-81
2021/10/09 10:57:03;;;;;;;17.02;7.37;;;;;;;12.28;62.05;103485.41;1694695;84;21607;-84
2021/10/09 10:59:49;;;;;;;13.40;8.45;;;;;;;12.30;61.44;103479.39;1694950;84;21536;-83
2021/10/09 11:02:29;;;;;;;8.90;6.35;;;;;;;12.35;61.39;103478.34;1694319;84;22603;-83
2021/10/09 11:05:10;;;;;;;9.53;6.42;;;;;;;12.37;60.67;103476.70;1703409;84;21616;-81
2021/10/09 11:07:40;;;;;;;9.13;6.45;;;;;;;12.38;60.49;103478.54;1703641;84;21109;-82
2021/10/09 11:10:11;;;;;;;15.53;8.78;;;;;;;12.40;60.64;103480.86;1689696;84;21709;-81
2021/10/09 11:12:49;;;;;;;14.43;8.05;;;;;;;12.43;60.57;103478.00;1677682;85;21100;-81
2021/10/09 11:15:25;;;;;;;12.33;8.15;;;;;;;12.50;60.76;103479.30;1676799;85;21100;-81
2021/10/09 11:18:01;;;;;;;10.00;7.70;;;;;;;12.54;60.50;103475.13;1677401;85;21126;-82
2021/10/09 11:20:37;;;;;;;9.98;7.15;;;;;;;12.58;60.29;103477.13;1677467;85;21148;-81
2021/10/09 11:23:10;;;;;;;12.47;7.97;;;;;;;12.64;60.11;103473.52;1677264;85;21669;-81
2021/10/09 11:25:42;;;;;;;15.37;8.57;;;;;;;12.69;59.72;103469.43;1677609;84;21108;-82
2021/10/09 11:28:22;;;;;;;17.10;9.08;;;;;;;12.72;59.64;103463.41;1677563;83;21795;-82
2021/10/09 11:30:49;;;;;;;12.35;8.13;;;;;;;12.76;59.42;103465.02;1677565;85;21085;-83
2021/10/09 11:33:28;;;;;;;18.05;7.90;;;;;;;12.82;59.27;103467.11;1677417;84;21084;-82
2021/10/09 11:35:58;;;;;;;7.53;6.53;;;;;;;12.85;59.02;103472.56;1677656;85;21215;-83
2021/10/09 11:38:30;;;;;;;11.88;6.22;;;;;;;12.88;58.69;103465.24;1650115;85;21061;-83
2021/10/09 11:41:07;;;;;;;13.32;7.30;;;;;;;12.91;58.43;103459.70;1678038;85;22634;-83
2021/10/09 11:43:54;;;;;;;8.00;6.00;;;;;;;12.97;58.16;103456.11;1677499;85;21540;-83
2021/10/09 11:47:07;;;;;;;9.98;5.35;;;;;;;13.03;58.14;103455.56;1677876;83;21104;-83
2021/10/09 11:55:16;;;;;;;;;;;;;;;13.12;57.46;103456.48;1670967;85;21763;-83
2021/10/09 11:57:45;;;;;;;9.08;5.30;;;;;;;13.05;57.10;103445.98;1643878;85;20837;-83
2021/10/09 12:00:37;;;;;;;7.95;5.65;;;;;;;13.00;57.14;103445.69;1669057;85;21121;-83
2021/10/09 12:03:33;;;;;;;9.13;5.90;;;;;;;12.95;56.96;103439.64;1668919;85;21181;-83
2021/10/09 12:06:07;;;;;;;11.48;6.30;;;;;;;12.89;56.86;103440.19;1664676;85;21091;-83
2021/10/09 12:08:39;;;;;;;9.40;5.60;;;;;;;12.84;56.73;103445.23;1668829;85;21853;-83
2021/10/09 12:11:24;;;;;;;7.75;6.17;;;;;;;12.76;56.60;103445.20;1668078;85;21122;-83
2021/10/09 12:14:01;;;;;;;7.78;5.67;;;;;;;12.71;56.62;103445.32;1669056;85;21126;-83
2021/10/09 12:16:42;;;;;;;7.08;5.60;;;;;;;12.70;56.57;103442.16;1668829;85;21188;-83
2021/10/09 12:19:16;;;;;;;8.83;5.42;;;;;;;12.71;56.28;103444.42;1669235;85;21150;-83
2021/10/09 12:22:00;;;;;;;8.83;5.03;;;;;;;12.75;56.24;103442.45;1669023;85;21277;-83
2021/10/09 12:24:29;;;;;;;7.95;5.20;;;;;;;12.80;55.85;103433.04;1669343;85;21071;-82
2021/10/09 12:27:18;;;;;;;11.53;5.33;;;;;;;12.82;55.80;103434.08;1668943;85;21166;-83
2021/10/09 12:30:04;;;;;;;10.10;7.45;;;;;;;12.84;55.85;103430.69;1668418;85;21176;-82
2021/10/09 12:32:47;;;;;;;7.65;5.97;;;;;;;12.85;55.57;103431.59;1675202;85;21156;-83
2021/10/09 12:35:29;;;;;;;11.60;5.42;;;;;;;12.85;55.68;103424.98;1678136;85;21780;-83
2021/10/09 12:38:08;;;;;;;7.05;4.47;;;;;;;12.85;55.33;103422.34;1671282;85;21100;-83
2021/10/09 12:40:48;;;;;;;8.30;4.47;;;;;;;12.88;55.22;103416.34;1671067;85;21089;-83
2021/10/09 12:43:20;;;;;;;8.90;4.03;;;;;;;12.89;55.05;103411.53;1671300;85;21090;-83
2021/10/09 12:45:47;;;;;;;6.78;4.12;;;;;;;12.94;54.89;103410.98;1671406;85;21109;-83
2021/10/09 12:48:17;;;;;;;7.33;4.15;;;;;;;13.01;54.63;103405.65;1671350;85;21810;-83
2021/10/09 12:50:43;;;;;;;10.30;4.75;;;;;;;13.06;54.38;103409.44;1678085;85;21101;-83
2021/10/09 12:53:10;;;;;;;6.92;4.65;;;;;;;13.10;54.48;103412.79;1678358;85;21332;-83
2021/10/09 12:55:37;;;;;;;6.00;4.25;;;;;;;13.13;54.49;103408.07;1678431;85;21073;-83
2021/10/09 12:58:09;;;;;;;6.53;3.92;;;;;;;13.17;54.29;103409.64;1677899;85;21590;-83
2021/10/09 13:00:38;;;;;;;8.35;6.45;;;;;;;13.19;54.15;103403.13;1671352;85;21892;-83
2021/10/09 13:03:05;;;;;;;10.53;4.72;;;;;;;13.21;54.08;103401.47;1671218;85;21109;-82
2021/10/09 13:05:32;;;;;;;5.65;3.83;;;;;;;13.24;54.01;103395.05;1671350;85;21042;-82
2021/10/09 13:08:00;;;;;;;7.35;4.85;;;;;;;13.28;53.83;103396.13;1671272;85;21066;-83
2021/10/09 13:10:30;;;;;;;5.37;3.92;;;;;;;13.29;53.52;103392.64;1671661;85;21516;-83
2021/10/09 13:12:58;;;;;;;5.00;3.75;;;;;;;13.31;53.34;103381.38;1678302;85;21128;-83
2021/10/09 13:15:25;;;;;;;7.28;4.05;;;;;;;13.37;53.33;103388.33;1678401;85;21492;-83
2021/10/09 13:17:51;;;;;;;7.70;4.78;;;;;;;13.46;53.18;103384.36;1678565;85;21096;-83
2021/10/09 13:20:19;;;;;;;7.55;4.78;;;;;;;13.50;52.95;103378.02;1671658;85;21089;-83
2021/10/09 13:22:49;;;;;;;12.07;5.40;;;;;;;13.56;52.92;103378.34;1671567;85;21077;-83
2021/10/09 13:25:16;;;;;;;6.78;4.85;;;;;;;13.61;52.75;103379.94;1671443;85;21776;-82
2021/10/09 13:27:43;;;;;;;15.93;7.20;;;;;;;13.63;52.75;103366.38;1671530;85;21302;-82
2021/10/09 13:30:11;;;;;;;10.63;6.62;;;;;;;13.68;52.84;103366.60;1671688;85;21101;-82